createdAt,value
2022-08-22T00:01:33.775Z,55.82
2022-08-22T00:02:43.366Z,47.08
2022-08-22T00:03:06.479Z,52.92
2022-08-22T00:03:07.175Z,48.87
2022-08-22T00:04:07.187Z,56.33
2022-08-22T00:06:16.862Z,56.58
2022-08-22T00:08:29.057Z,57.03
2022-08-22T00:10:36.028Z,56.54
2022-08-22T00:12:54.862Z,56.07
2022-08-22T00:15:42.077Z,56.43
2022-08-22T00:17:57.424Z,56.99
2022-08-22T00:20:28.133Z,56.48
2022-08-22T00:22:49.484Z,57.15
2022-08-22T00:25:20.591Z,57.75
2022-08-22T00:27:38.304Z,57.51
2022-08-22T00:30:09.275Z,57.46
2022-08-22T00:32:17.951Z,57.88
2022-08-22T00:34:22.876Z,58.19
2022-08-22T00:36:31.868Z,58.26
2022-08-22T00:38:41.211Z,58.44
2022-08-22T00:41:19.655Z,58.81
2022-08-22T00:43:57.793Z,58.41
2022-08-22T00:46:30.070Z,58.77
2022-08-22T00:48:35.502Z,58.87
2022-08-22T00:50:59.658Z,58.30
2022-08-22T00:53:11.075Z,57.93
2022-08-22T00:55:34.919Z,59.02
2022-08-22T00:58:31.299Z,58.60
2022-08-22T01:00:43.672Z,58.55
2022-08-22T01:03:13.943Z,58.81
2022-08-22T01:05:31.756Z,59.23
2022-08-22T01:07:38.203Z,59.64
2022-08-22T01:09:55.974Z,59.22
2022-08-22T01:12:26.555Z,59.87
2022-08-22T01:15:00.615Z,58.47
2022-08-22T01:17:05.918Z,59.37
2022-08-22T01:19:50.290Z,59.50
2022-08-22T01:22:10.709Z,60.09
2022-08-22T01:25:08.414Z,59.85
2022-08-22T01:27:39.286Z,60.13
2022-08-22T01:30:04.880Z,60.26
2022-08-22T01:32:29.133Z,60.33
2022-08-22T01:34:43.521Z,59.91
2022-08-22T01:37:07.812Z,59.34
2022-08-22T01:39:36.920Z,60.14
2022-08-22T01:42:17.778Z,60.46
2022-08-22T01:44:47.187Z,60.32
2022-08-22T01:47:08.885Z,60.31
2022-08-22T01:49:18.233Z,60.63
2022-08-22T01:51:32.155Z,61.03
2022-08-22T01:53:51.707Z,61.24
2022-08-22T01:55:57.031Z,61.06
2022-08-22T01:58:05.088Z,60.91
2022-08-22T02:00:18.170Z,61.05
2022-08-22T02:02:37.559Z,59.72
2022-08-22T02:05:19.252Z,60.20
2022-08-22T02:07:40.514Z,60.45
2022-08-22T02:10:07.861Z,61.15
2022-08-22T02:12:31.421Z,61.32
2022-08-22T02:14:34.056Z,60.91
2022-08-22T02:16:44.332Z,60.98
2022-08-22T02:19:07.934Z,61.13
2022-08-22T02:21:27.559Z,61.65
2022-08-22T02:23:57.450Z,61.03
2022-08-22T02:26:03.125Z,61.53
2022-08-22T02:28:20.114Z,61.97
2022-08-22T02:30:31.349Z,61.52
2022-08-22T02:33:04.718Z,62.09
2022-08-22T02:35:07.542Z,61.26
2022-08-22T02:37:24.418Z,61.43
2022-08-22T02:39:33.976Z,61.12
2022-08-22T02:41:55.010Z,61.12
2022-08-22T02:44:26.069Z,62.08
2022-08-22T02:46:47.237Z,62.42
2022-08-22T02:49:14.042Z,62.08
2022-08-22T02:51:24.911Z,61.42
2022-08-22T02:53:46.495Z,62.33
2022-08-22T02:56:19.794Z,62.18
2022-08-22T02:58:59.271Z,61.49
2022-08-22T03:01:02.769Z,61.72
2022-08-22T03:03:26.895Z,61.72
2022-08-22T03:05:40.507Z,61.77
2022-08-22T03:07:51.179Z,62.15
2022-08-22T03:10:14.037Z,62.16
2022-08-22T03:12:30.102Z,61.93
2022-08-22T03:14:42.870Z,61.74
2022-08-22T03:16:51.237Z,60.89
2022-08-22T03:19:03.737Z,61.00
2022-08-22T03:21:15.491Z,60.96
2022-08-22T03:23:36.475Z,61.08
2022-08-22T03:25:50.026Z,60.73
2022-08-22T03:28:03.551Z,60.60
2022-08-22T03:30:38.624Z,60.87
2022-08-22T03:32:49.670Z,60.56
2022-08-22T03:35:04.057Z,60.50
2022-08-22T03:37:21.256Z,61.02
2022-08-22T03:39:53.214Z,60.72
2022-08-22T03:42:03.740Z,60.67
2022-08-22T03:44:28.183Z,60.29
2022-08-22T03:46:56.716Z,60.77
2022-08-22T03:49:27.147Z,60.49
2022-08-22T03:51:38.722Z,60.50
2022-08-22T03:53:59.791Z,60.30
2022-08-22T03:56:20.826Z,59.95
2022-08-22T03:58:32.398Z,60.06
2022-08-22T04:00:35.497Z,59.84
2022-08-22T04:02:44.352Z,60.48
2022-08-22T04:05:05.620Z,60.78
2022-08-22T04:07:46.190Z,60.44
2022-08-22T04:10:07.327Z,60.29
2022-08-22T04:12:39.446Z,60.45
2022-08-22T04:15:14.962Z,59.76
2022-08-22T04:17:51.530Z,60.53
2022-08-22T04:20:30.783Z,60.57
2022-08-22T04:22:58.987Z,60.72
2022-08-22T04:25:39.659Z,61.43
2022-08-22T04:28:01.004Z,60.53
2022-08-22T04:30:11.339Z,60.88
2022-08-22T04:32:16.724Z,61.08
2022-08-22T04:34:40.367Z,60.14
2022-08-22T04:36:59.897Z,59.43
2022-08-22T04:39:13.381Z,60.80
2022-08-22T04:41:25.595Z,59.76
2022-08-22T04:43:50.692Z,60.17
2022-08-22T04:46:23.611Z,59.99
2022-08-22T04:48:35.094Z,59.70
2022-08-22T04:50:43.525Z,59.31
2022-08-22T04:52:49.081Z,59.01
2022-08-22T04:55:04.050Z,61.60
2022-08-22T04:57:11.425Z,59.20
2022-08-22T04:59:18.120Z,58.48
2022-08-22T05:01:25.895Z,59.33
2022-08-22T05:03:30.535Z,60.29
2022-08-22T05:05:38.699Z,60.67
2022-08-22T05:08:01.092Z,59.73
2022-08-22T05:10:13.302Z,59.54
2022-08-22T05:12:22.807Z,58.85
2022-08-22T05:14:51.577Z,57.94
2022-08-22T05:16:59.523Z,57.96
2022-08-22T05:19:16.581Z,57.55
2022-08-22T05:21:27.143Z,57.79
2022-08-22T05:23:36.383Z,57.50
2022-08-22T05:25:43.109Z,57.63
2022-08-22T05:27:56.339Z,56.82
2022-08-22T05:30:09.252Z,56.93
2022-08-22T05:32:32.461Z,56.23
2022-08-22T05:34:39.490Z,56.30
2022-08-22T05:36:57.342Z,56.63
2022-08-22T05:39:03.931Z,56.02
2022-08-22T05:41:11.831Z,55.35
2022-08-22T05:43:14.669Z,55.51
2022-08-22T05:45:19.161Z,56.29
2022-08-22T05:47:31.982Z,57.13
2022-08-22T05:49:45.892Z,57.17
2022-08-22T05:51:53.801Z,56.53
2022-08-22T05:54:12.860Z,56.86
2022-08-22T05:56:43.275Z,57.48
2022-08-22T05:59:00.295Z,57.71
2022-08-22T06:01:34.963Z,57.64
2022-08-22T06:03:47.752Z,55.15
2022-08-22T06:05:56.200Z,55.58
2022-08-22T06:08:08.280Z,55.35
2022-08-22T06:10:26.299Z,54.96
2022-08-22T06:12:51.207Z,54.02
2022-08-22T06:15:11.857Z,52.66
2022-08-22T06:17:22.811Z,53.28
2022-08-22T06:19:25.798Z,52.71
2022-08-22T06:21:39.591Z,52.90
2022-08-22T06:23:48.457Z,52.77
2022-08-22T06:25:54.267Z,54.63
2022-08-22T06:27:59.173Z,53.72
2022-08-22T06:30:04.101Z,53.69
2022-08-22T06:32:44.379Z,51.67
2022-08-22T06:34:45.214Z,51.52
2022-08-22T06:36:51.539Z,52.96
2022-08-22T06:39:12.569Z,52.60
2022-08-22T06:41:15.372Z,51.74
2022-08-22T06:43:19.060Z,50.97
2022-08-22T06:45:33.195Z,50.50
2022-08-22T06:47:49.836Z,49.70
2022-08-22T06:49:59.738Z,49.87
2022-08-22T06:52:09.793Z,50.28
2022-08-22T06:54:22.315Z,49.87
2022-08-22T06:56:29.869Z,49.12
2022-08-22T06:58:43.993Z,49.15
2022-08-22T07:01:12.010Z,49.67
2022-08-22T07:03:37.466Z,49.22
2022-08-22T07:05:43.074Z,49.11
2022-08-22T07:07:46.353Z,47.75
2022-08-22T07:09:55.530Z,48.44
2022-08-22T07:12:02.317Z,48.26
2022-08-22T07:14:16.093Z,48.46
2022-08-22T07:16:29.375Z,47.64
2022-08-22T07:18:33.292Z,47.07
2022-08-22T07:20:42.348Z,48.19
2022-08-22T07:22:57.806Z,47.33
2022-08-22T07:25:07.886Z,47.78
2022-08-22T07:27:37.590Z,47.37
2022-08-22T07:29:49.646Z,47.28
2022-08-22T07:32:14.012Z,47.28
2022-08-22T07:34:44.940Z,46.27
2022-08-22T07:36:56.542Z,46.33
2022-08-22T07:39:28.431Z,46.33
2022-08-22T07:41:50.506Z,46.15
2022-08-22T07:44:00.446Z,46.58
2022-08-22T07:46:25.034Z,45.10
2022-08-22T07:48:33.989Z,44.28
2022-08-22T07:50:57.672Z,46.16
2022-08-22T07:53:20.563Z,44.60
2022-08-22T07:55:26.067Z,46.77
2022-08-22T07:57:34.151Z,45.59
2022-08-22T07:59:43.050Z,46.23
2022-08-22T08:02:00.483Z,45.24
2022-08-22T08:04:15.050Z,43.90
2022-08-22T08:06:23.576Z,43.49
2022-08-22T08:08:28.904Z,43.71
2022-08-22T08:10:35.051Z,42.83
2022-08-22T08:13:02.282Z,45.21
2022-08-22T08:15:48.001Z,43.67
2022-08-22T08:17:55.702Z,43.69
2022-08-22T08:20:03.029Z,43.72
2022-08-22T08:22:07.198Z,44.31
2022-08-22T08:24:15.891Z,43.66
2022-08-22T08:26:30.328Z,44.64
2022-08-22T08:28:38.753Z,44.33
2022-08-22T08:30:55.596Z,43.75
2022-08-22T08:33:25.033Z,41.57
2022-08-22T08:36:02.626Z,41.02
2022-08-22T08:38:17.466Z,40.55
2022-08-22T08:40:33.385Z,40.77
2022-08-22T08:43:23.620Z,41.16
2022-08-22T08:45:35.327Z,41.25
2022-08-22T08:48:15.901Z,40.92
2022-08-22T08:50:36.765Z,40.77
2022-08-22T08:52:52.697Z,42.38
2022-08-22T08:55:30.829Z,41.50
2022-08-22T08:57:55.634Z,40.81
2022-08-22T09:00:01.027Z,41.12
2022-08-22T09:02:35.779Z,40.26
2022-08-22T09:05:19.674Z,39.49
2022-08-22T09:07:42.460Z,39.47
2022-08-22T09:10:00.330Z,39.58
2022-08-22T09:12:56.351Z,39.11
2022-08-22T09:15:14.399Z,38.90
2022-08-22T09:18:09.404Z,38.61
2022-08-22T09:20:17.755Z,38.81
2022-08-22T09:22:52.358Z,38.46
2022-08-22T09:25:00.728Z,37.83
2022-08-22T09:27:17.725Z,37.45
2022-08-22T09:32:24.975Z,37.52
2022-08-22T09:34:41.366Z,36.87
2022-08-22T09:37:06.642Z,36.86
2022-08-22T09:39:45.639Z,37.26
2022-08-22T09:42:20.322Z,36.80
2022-08-22T09:44:40.775Z,35.79
2022-08-22T09:47:08.402Z,36.46
2022-08-22T09:49:27.112Z,36.20
2022-08-22T09:51:41.414Z,35.74
2022-08-22T09:53:50.472Z,36.03
2022-08-22T09:56:01.325Z,35.06
2022-08-22T09:58:41.589Z,35.08
2022-08-22T10:00:54.958Z,35.97
2022-08-22T10:03:20.123Z,36.02
2022-08-22T10:05:59.039Z,36.79
2022-08-22T10:08:20.118Z,36.54
2022-08-22T10:10:54.723Z,35.70
2022-08-22T10:13:41.550Z,35.79
2022-08-22T10:16:17.442Z,37.08
2022-08-22T10:18:53.946Z,36.44
2022-08-22T10:20:59.047Z,36.56
2022-08-22T10:23:24.291Z,35.25
2022-08-22T10:25:45.961Z,35.23
2022-08-22T10:27:57.495Z,35.00
2022-08-22T10:30:16.473Z,35.37
2022-08-22T10:32:40.598Z,34.67
2022-08-22T10:34:51.091Z,35.30
2022-08-22T10:37:12.950Z,35.73
2022-08-22T10:39:38.300Z,34.80
2022-08-22T10:42:18.584Z,34.17
2022-08-22T10:44:43.455Z,34.05
2022-08-22T10:46:53.008Z,34.69
2022-08-22T10:49:08.067Z,33.92
2022-08-22T10:51:19.624Z,33.18
2022-08-22T10:53:34.936Z,34.07
2022-08-22T10:55:42.365Z,34.00
2022-08-22T10:57:52.886Z,33.76
2022-08-22T11:00:02.837Z,33.98
2022-08-22T11:02:18.627Z,32.99
2022-08-22T11:04:32.394Z,33.73
2022-08-22T11:07:01.623Z,33.90
2022-08-22T11:09:22.210Z,33.10
2022-08-22T11:11:38.356Z,33.23
2022-08-22T11:14:17.591Z,32.32
2022-08-22T11:16:56.215Z,32.14
2022-08-22T11:19:15.011Z,32.29
2022-08-22T11:21:51.023Z,32.03
2022-08-22T11:24:06.610Z,31.79
2022-08-22T11:27:01.704Z,32.14
2022-08-22T11:29:24.456Z,31.84
2022-08-22T11:54:31.334Z,31.27
2022-08-22T11:57:02.365Z,31.09
2022-08-22T11:59:16.407Z,31.66
2022-08-22T12:01:27.401Z,31.86
2022-08-22T12:04:04.282Z,31.78
2022-08-22T12:06:26.540Z,31.65
2022-08-22T12:08:29.893Z,32.39
2022-08-22T12:10:36.264Z,32.57
2022-08-22T12:12:57.324Z,31.95
2022-08-22T12:15:13.577Z,33.14
2022-08-22T12:17:55.796Z,33.09
2022-08-22T12:20:16.359Z,32.14
2022-08-22T12:22:57.745Z,30.92
2022-08-22T12:25:19.520Z,30.75
2022-08-22T12:27:48.225Z,30.63
2022-08-22T12:30:13.915Z,29.43
2022-08-22T12:32:38.243Z,29.55
2022-08-22T12:34:55.536Z,29.47
2022-08-22T12:37:21.453Z,29.66
2022-08-22T12:39:41.914Z,29.90
2022-08-22T12:42:15.343Z,28.37
2022-08-22T12:44:29.962Z,29.89
2022-08-22T12:46:46.518Z,29.42
2022-08-22T12:49:14.616Z,28.34
2022-08-22T12:51:39.021Z,28.31
2022-08-22T12:53:53.889Z,28.36
2022-08-22T12:56:02.097Z,27.60
2022-08-22T12:58:33.482Z,27.40
2022-08-22T13:00:47.518Z,26.81
2022-08-22T13:02:54.232Z,26.29
2022-08-22T13:05:01.738Z,26.30
2022-08-22T13:07:30.741Z,26.58
2022-08-22T13:09:47.090Z,26.62
2022-08-22T13:11:54.642Z,27.09
2022-08-22T13:14:02.593Z,26.05
2022-08-22T13:16:13.308Z,25.77
2022-08-22T13:18:29.871Z,25.88
2022-08-22T13:20:39.063Z,26.62
2022-08-22T13:22:46.562Z,27.10
2022-08-22T13:24:57.422Z,26.92
2022-08-22T13:27:06.240Z,25.68
2022-08-22T13:29:26.087Z,26.30
2022-08-22T13:31:36.188Z,25.39
2022-08-22T13:33:47.919Z,25.41
2022-08-22T13:35:58.555Z,25.69
2022-08-22T13:38:13.706Z,25.67
2022-08-22T13:40:31.260Z,25.30
2022-08-22T13:42:44.057Z,25.26
2022-08-22T13:44:55.066Z,25.36
2022-08-22T13:47:23.926Z,25.52
2022-08-22T13:49:39.842Z,24.95
2022-08-22T13:51:50.301Z,25.55
2022-08-22T13:54:11.263Z,26.35
2022-08-22T13:56:22.246Z,25.92
2022-08-22T13:58:35.293Z,26.07
2022-08-22T14:00:57.695Z,25.89
2022-08-22T14:03:08.192Z,26.50
2022-08-22T14:05:24.151Z,26.25
2022-08-22T14:07:55.355Z,25.96
2022-08-22T14:10:06.894Z,26.28
2022-08-22T14:12:22.629Z,27.01
2022-08-22T14:14:31.953Z,26.55
2022-08-22T14:16:45.816Z,26.15
2022-08-22T14:18:53.955Z,26.46
2022-08-22T14:21:16.578Z,26.08
2022-08-22T14:23:29.528Z,25.85
2022-08-22T14:25:38.905Z,26.63
2022-08-22T14:28:00.970Z,26.42
2022-08-22T14:30:24.481Z,26.40
2022-08-22T14:32:30.924Z,26.98
2022-08-22T14:34:39.775Z,26.73
2022-08-22T14:36:49.296Z,26.75
2022-08-22T14:39:12.054Z,26.82
2022-08-22T14:41:17.679Z,27.36
2022-08-22T14:43:40.509Z,27.17
2022-08-22T14:45:47.129Z,28.11
2022-08-22T14:48:30.214Z,27.68
2022-08-22T14:50:32.877Z,27.07
2022-08-22T14:52:46.297Z,27.25
2022-08-22T14:54:48.902Z,27.60
2022-08-22T14:56:55.048Z,27.33
2022-08-22T14:59:02.704Z,27.37
2022-08-22T15:01:15.802Z,26.26
2022-08-22T15:03:35.047Z,26.56
2022-08-22T15:05:45.224Z,27.02
2022-08-22T15:07:59.563Z,28.18
2022-08-22T15:10:21.594Z,28.58
2022-08-22T15:12:27.134Z,29.76
2022-08-22T15:14:35.401Z,30.61
2022-08-22T15:16:51.633Z,30.83
2022-08-22T15:18:54.278Z,31.37
2022-08-22T15:21:10.206Z,31.81
2022-08-22T15:23:23.082Z,31.57
2022-08-22T15:25:28.096Z,31.50
2022-08-22T15:27:34.818Z,31.50
2022-08-22T15:29:50.661Z,31.99
2022-08-22T15:31:57.998Z,33.00
2022-08-22T15:34:24.613Z,32.88
2022-08-22T15:36:27.697Z,33.27
2022-08-22T15:38:36.459Z,33.94
2022-08-22T15:40:43.390Z,34.12
2022-08-22T15:42:51.506Z,34.26
2022-08-22T15:44:57.840Z,34.65
2022-08-22T15:47:28.434Z,34.07
2022-08-22T15:49:38.313Z,35.19
2022-08-22T15:52:00.735Z,35.00
2022-08-22T15:54:24.301Z,35.11
2022-08-22T15:56:47.510Z,35.10
2022-08-22T15:59:13.150Z,35.70
2022-08-22T16:01:22.492Z,35.93
2022-08-22T16:03:28.650Z,36.05
2022-08-22T16:05:46.832Z,36.81
2022-08-22T16:08:04.867Z,36.83
2022-08-22T16:10:54.077Z,36.99
2022-08-22T16:13:38.163Z,36.92
2022-08-22T16:15:55.737Z,37.67
2022-08-22T16:17:59.294Z,38.11
2022-08-22T16:20:19.605Z,38.32
2022-08-22T16:22:46.915Z,38.13
2022-08-22T16:24:59.849Z,39.07
2022-08-22T16:27:20.770Z,38.79
2022-08-22T16:29:41.494Z,40.01
2022-08-22T16:31:44.415Z,38.40
2022-08-22T16:33:47.595Z,40.69
2022-08-22T16:36:20.968Z,39.73
2022-08-22T16:38:36.756Z,40.01
2022-08-22T16:40:48.754Z,40.40
2022-08-22T16:43:11.987Z,40.26
2022-08-22T16:45:30.254Z,40.30
2022-08-22T16:47:42.133Z,40.33
2022-08-22T16:49:50.466Z,39.95
2022-08-22T16:52:21.102Z,40.31
2022-08-22T16:54:48.836Z,40.40
2022-08-22T16:57:10.566Z,40.23
2022-08-22T16:59:33.219Z,40.49
2022-08-22T17:02:20.574Z,40.59
2022-08-22T17:05:03.480Z,38.69
2022-08-22T17:07:24.283Z,38.83
2022-08-22T17:09:29.603Z,39.90
2022-08-22T17:11:47.503Z,40.73
2022-08-22T17:13:58.922Z,41.01
2022-08-22T17:16:16.910Z,40.67
2022-08-22T17:18:37.892Z,39.77
2022-08-22T17:20:46.329Z,40.79
2022-08-22T17:22:51.469Z,40.43
2022-08-22T17:25:12.290Z,40.70
2022-08-22T17:27:30.657Z,40.65
2022-08-22T17:29:52.501Z,41.70
2022-08-22T17:32:47.390Z,40.87
2022-08-22T17:35:45.226Z,41.29
2022-08-22T17:37:59.897Z,41.67
2022-08-22T17:40:20.965Z,41.79
2022-08-22T17:42:23.588Z,42.24
2022-08-22T17:44:34.375Z,43.21
2022-08-22T17:47:03.421Z,43.31
2022-08-22T17:49:11.804Z,43.86
2022-08-22T17:51:29.189Z,44.34
2022-08-22T17:53:57.011Z,44.61
2022-08-22T17:56:24.410Z,44.39
2022-08-22T17:58:43.465Z,44.03
2022-08-22T18:01:03.766Z,43.65
2022-08-22T18:03:09.387Z,43.21
2022-08-22T18:09:17.277Z,42.97
2022-08-22T18:11:30.184Z,42.76
2022-08-22T18:14:07.470Z,42.78
2022-08-22T18:16:29.574Z,43.16
2022-08-22T18:18:37.797Z,45.57
2022-08-22T18:20:50.991Z,45.26
2022-08-22T18:23:36.154Z,44.81
2022-08-22T18:25:54.663Z,46.00
2022-08-22T18:28:12.393Z,45.36
2022-08-22T18:30:22.297Z,46.28
2022-08-22T18:32:33.291Z,45.30
2022-08-22T18:35:05.286Z,44.02
2022-08-22T18:37:21.927Z,46.21
2022-08-22T18:39:56.494Z,46.69
2022-08-22T18:42:11.442Z,46.55
2022-08-22T18:44:21.741Z,45.82
2022-08-22T18:46:43.649Z,45.50
2022-08-22T18:49:12.104Z,46.15
2022-08-22T18:51:25.968Z,46.25
2022-08-22T18:53:44.316Z,47.01
2022-08-22T18:55:58.481Z,45.51
2022-08-22T18:58:11.351Z,45.70
2022-08-22T19:00:17.149Z,46.02
2022-08-22T19:02:37.950Z,45.71
2022-08-22T19:05:17.703Z,45.21
2022-08-22T19:07:51.273Z,45.50
2022-08-22T19:10:16.052Z,46.20
2022-08-22T19:12:56.005Z,45.76
2022-08-22T19:15:04.458Z,45.93
2022-08-22T19:17:13.860Z,46.26
2022-08-22T19:19:58.997Z,46.33
2022-08-22T19:22:29.778Z,46.81
2022-08-22T19:24:57.291Z,46.90
2022-08-22T19:27:12.539Z,47.45
2022-08-22T19:29:18.237Z,48.23
2022-08-22T19:31:35.760Z,48.37
2022-08-22T19:33:59.884Z,48.86
2022-08-22T19:36:13.004Z,49.50
2022-08-22T19:38:54.365Z,49.28
2022-08-22T19:40:58.612Z,49.19
2022-08-22T19:43:17.282Z,49.04
2022-08-22T19:45:28.966Z,48.66
2022-08-22T19:47:39.420Z,49.04
2022-08-22T19:50:05.644Z,48.62
2022-08-22T19:52:27.217Z,48.51
2022-08-22T19:54:31.905Z,48.50
2022-08-22T19:57:01.212Z,48.89
2022-08-22T19:59:20.363Z,48.92
2022-08-22T20:01:37.795Z,49.31
2022-08-22T20:03:59.191Z,49.09
2022-08-22T20:06:43.475Z,49.06
2022-08-22T20:09:09.764Z,49.37
2022-08-22T20:11:29.863Z,49.88
2022-08-22T20:13:35.789Z,50.18
2022-08-22T20:16:10.929Z,50.25
2022-08-22T20:18:47.246Z,50.26
2022-08-22T20:20:55.794Z,50.27
2022-08-22T20:23:25.339Z,50.23
2022-08-22T20:25:51.144Z,50.27
2022-08-22T20:28:02.026Z,50.36
2022-08-22T20:30:15.452Z,50.23
2022-08-22T20:32:21.609Z,50.06
2022-08-22T20:34:28.685Z,50.21
2022-08-22T20:36:32.598Z,50.24
2022-08-22T20:38:42.211Z,49.94
2022-08-22T20:41:20.615Z,50.31
2022-08-22T20:43:34.622Z,50.21
2022-08-22T20:45:43.829Z,50.32
2022-08-22T20:47:51.596Z,50.38
2022-08-22T20:50:02.002Z,50.58
2022-08-22T20:52:21.770Z,50.62
2022-08-22T20:54:28.568Z,50.90
2022-08-22T20:56:52.867Z,51.04
2022-08-22T20:59:00.930Z,50.96
2022-08-22T21:01:06.204Z,51.00
2022-08-22T21:03:30.495Z,51.11
2022-08-22T21:05:40.510Z,51.18
2022-08-22T21:07:45.987Z,51.16
2022-08-22T21:10:22.736Z,51.48
2022-08-22T21:12:26.581Z,51.40
2022-08-22T21:14:34.199Z,51.53
2022-08-22T21:16:36.757Z,51.41
2022-08-22T21:18:42.557Z,51.64
2022-08-22T21:20:48.652Z,51.65
2022-08-22T21:22:51.548Z,51.50
2022-08-22T21:24:59.286Z,51.60
2022-08-22T21:27:03.201Z,51.71
2022-08-22T21:29:22.505Z,52.37
2022-08-22T21:31:35.507Z,52.16
2022-08-22T21:33:44.078Z,52.33
2022-08-22T21:35:55.767Z,52.56
2022-08-22T21:38:01.395Z,52.36
2022-08-22T21:40:18.845Z,52.50
2022-08-22T21:42:29.314Z,52.48
2022-08-22T21:44:31.798Z,52.61
2022-08-22T21:46:34.371Z,52.35
2022-08-22T21:48:59.115Z,52.34
2022-08-22T21:51:43.903Z,52.29
2022-08-22T21:53:46.547Z,52.15
2022-08-22T21:56:13.744Z,52.43
2022-08-22T21:58:34.220Z,52.21
2022-08-22T22:00:48.757Z,52.33
2022-08-22T22:02:59.418Z,52.16
2022-08-22T22:05:08.717Z,51.97
2022-08-22T22:07:11.814Z,51.91
2022-08-22T22:09:18.163Z,52.07
2022-08-22T22:11:21.106Z,52.08
2022-08-22T22:13:27.178Z,52.27
2022-08-22T22:15:37.479Z,52.20
2022-08-22T22:17:40.076Z,52.18
2022-08-22T22:19:42.869Z,51.94
2022-08-22T22:21:45.514Z,52.11
2022-08-22T22:23:49.463Z,52.27
2022-08-22T22:25:53.635Z,51.84
2022-08-22T22:27:57.637Z,51.55
2022-08-22T22:30:00.885Z,51.42
2022-08-22T22:32:04.274Z,51.60
2022-08-22T22:34:07.033Z,51.71
2022-08-22T22:36:13.635Z,52.31
2022-08-22T22:38:21.862Z,52.18
2022-08-22T22:40:26.562Z,52.57
2022-08-22T22:42:29.200Z,52.48
2022-08-22T22:44:31.809Z,53.18
2022-08-22T22:46:34.432Z,53.99
2022-08-22T22:48:37.076Z,53.98
2022-08-22T22:50:43.323Z,54.23
2022-08-22T22:52:45.871Z,54.44
2022-08-22T22:54:48.619Z,54.61
2022-08-22T22:56:52.996Z,54.58
2022-08-22T22:58:58.999Z,54.72
2022-08-22T23:01:22.453Z,54.82
2022-08-22T23:03:26.957Z,55.09
2022-08-22T23:05:30.327Z,55.54
2022-08-22T23:07:33.972Z,55.52
2022-08-22T23:09:38.458Z,55.92
2022-08-22T23:11:47.239Z,56.57
2022-08-22T23:13:50.277Z,56.53
2022-08-22T23:15:52.840Z,56.80
2022-08-22T23:17:55.785Z,56.64
2022-08-22T23:19:58.571Z,57.16
2022-08-22T23:22:01.595Z,57.30
2022-08-22T23:24:05.996Z,57.22
2022-08-22T23:26:09.378Z,57.63
2022-08-22T23:28:12.077Z,57.94
2022-08-22T23:30:14.853Z,58.20
2022-08-22T23:32:17.745Z,58.72
2022-08-22T23:34:23.690Z,58.74
2022-08-22T23:36:26.492Z,58.76
2022-08-22T23:38:29.614Z,59.01
2022-08-22T23:40:32.322Z,59.74
2022-08-22T23:42:35.433Z,59.31
2022-08-22T23:44:40.190Z,60.79
2022-08-22T23:46:44.804Z,59.91
2022-08-22T23:48:47.732Z,59.69
2022-08-22T23:50:50.684Z,59.03
2022-08-22T23:52:53.345Z,59.70
2022-08-22T23:54:56.304Z,59.85
2022-08-22T23:57:01.772Z,60.21
2022-08-22T23:59:08.789Z,59.95
